createdAt,value
2022-09-17T00:01:15.250Z,2.28
2022-09-17T00:04:38.137Z,1.50
2022-09-17T00:08:01.088Z,2.63
2022-09-17T00:11:26.233Z,1.80
2022-09-17T00:14:50.478Z,2.10
2022-09-17T00:18:14.495Z,2.08
2022-09-17T00:21:37.837Z,1.65
2022-09-17T00:25:00.773Z,1.60
2022-09-17T00:28:23.705Z,2.30
2022-09-17T00:31:47.997Z,2.20
2022-09-17T00:35:11.033Z,1.40
2022-09-17T00:38:34.836Z,1.65
2022-09-17T00:41:57.782Z,1.67
2022-09-17T00:45:21.547Z,2.17
2022-09-17T00:48:46.361Z,2.38
2022-09-17T00:52:12.203Z,2.15
2022-09-17T00:55:37.977Z,2.22
2022-09-17T00:59:02.951Z,2.00
2022-09-17T01:02:26.593Z,2.80
2022-09-17T01:06:10.321Z,1.75
2022-09-17T01:09:43.900Z,1.77
2022-09-17T01:13:18.130Z,1.83
2022-09-17T01:16:48.718Z,2.08
2022-09-17T01:20:51.709Z,1.90
2022-09-17T01:24:48.324Z,1.73
2022-09-17T01:28:29.221Z,1.63
2022-09-17T01:31:59.791Z,1.70
2022-09-17T01:35:32.859Z,1.80
2022-09-17T01:39:01.849Z,2.70
2022-09-17T01:42:31.219Z,1.63
2022-09-17T01:45:58.493Z,2.30
2022-09-17T01:49:25.884Z,1.80
2022-09-17T01:52:52.293Z,1.92
2022-09-17T01:56:19.918Z,2.13
2022-09-17T01:59:46.787Z,1.58
2022-09-17T02:03:15.923Z,1.48
2022-09-17T02:06:45.474Z,1.80
2022-09-17T02:10:11.819Z,1.50
2022-09-17T02:13:40.070Z,1.90
2022-09-17T02:17:10.938Z,1.60
2022-09-17T02:20:40.842Z,1.67
2022-09-17T02:24:12.693Z,1.60
2022-09-17T02:27:45.997Z,1.77
2022-09-17T02:31:09.279Z,1.58
2022-09-17T02:34:32.436Z,1.70
2022-09-17T02:37:55.484Z,1.70
2022-09-17T02:41:24.053Z,1.65
2022-09-17T02:44:55.978Z,1.20
2022-09-17T02:48:35.038Z,1.45
2022-09-17T02:52:07.697Z,1.40
2022-09-17T02:55:37.605Z,1.38
2022-09-17T02:59:10.338Z,1.80
2022-09-17T03:02:38.314Z,1.77
2022-09-17T03:06:01.931Z,1.50
2022-09-17T03:09:24.852Z,1.20
2022-09-17T03:12:47.745Z,1.73
2022-09-17T03:16:12.342Z,1.38
2022-09-17T03:19:35.322Z,1.70
2022-09-17T03:22:58.258Z,1.77
2022-09-17T03:26:21.551Z,2.20
2022-09-17T03:29:44.705Z,1.30
2022-09-17T03:33:08.947Z,1.40
2022-09-17T03:36:31.881Z,1.73
2022-09-17T03:39:54.791Z,1.50
2022-09-17T03:43:17.781Z,1.38
2022-09-17T03:46:40.681Z,1.45
2022-09-17T03:50:05.873Z,1.45
2022-09-17T03:53:28.834Z,1.60
2022-09-17T03:56:51.716Z,1.50
2022-09-17T04:00:17.377Z,1.73
2022-09-17T04:03:40.716Z,1.30
2022-09-17T04:07:05.957Z,1.52
2022-09-17T04:10:29.291Z,1.20
2022-09-17T04:13:52.185Z,1.50
2022-09-17T04:17:18.036Z,1.42
2022-09-17T04:20:41.382Z,1.50
2022-09-17T04:24:05.868Z,1.73
2022-09-17T04:27:28.845Z,1.40
2022-09-17T04:30:51.764Z,1.52
2022-09-17T04:34:14.800Z,2.13
2022-09-17T04:37:37.742Z,1.63
2022-09-17T04:41:02.189Z,1.77
2022-09-17T04:44:25.118Z,1.20
2022-09-17T04:47:48.021Z,1.80
2022-09-17T04:51:10.955Z,1.50
2022-09-17T04:54:33.886Z,1.38
2022-09-17T04:57:58.323Z,1.30
2022-09-17T05:01:21.289Z,1.63
2022-09-17T05:04:44.285Z,1.90
2022-09-17T05:08:08.273Z,1.55
2022-09-17T05:11:31.353Z,1.65
2022-09-17T05:14:55.553Z,1.92
2022-09-17T05:18:18.516Z,2.00
2022-09-17T05:21:41.434Z,1.77
2022-09-17T05:25:04.581Z,2.47
2022-09-17T05:28:27.616Z,1.90
2022-09-17T05:31:51.869Z,1.45
2022-09-17T05:35:15.133Z,2.13
2022-09-17T05:38:38.616Z,2.20
2022-09-17T05:42:01.558Z,1.38
2022-09-17T05:45:24.486Z,1.83
2022-09-17T05:48:48.803Z,1.80
2022-09-17T05:52:11.742Z,2.30
2022-09-17T05:55:35.947Z,1.20
2022-09-17T05:58:59.138Z,1.88
2022-09-17T06:02:22.129Z,1.98
2022-09-17T06:05:54.478Z,2.28
2022-09-17T06:09:17.548Z,1.92
2022-09-17T06:12:40.850Z,1.83
2022-09-17T06:16:04.819Z,1.52
2022-09-17T06:19:29.037Z,1.80
2022-09-17T06:22:58.275Z,1.50
2022-09-17T06:26:21.199Z,1.95
2022-09-17T06:29:44.111Z,1.67
2022-09-17T06:33:06.962Z,1.73
2022-09-17T06:36:30.101Z,1.90
2022-09-17T06:39:54.514Z,1.88
2022-09-17T06:43:17.477Z,1.75
2022-09-17T06:46:40.634Z,1.70
2022-09-17T06:50:03.674Z,1.55
2022-09-17T06:53:26.706Z,2.15
2022-09-17T06:56:51.265Z,2.00
2022-09-17T07:00:15.462Z,1.77
2022-09-17T07:03:39.004Z,1.60
2022-09-17T07:07:01.925Z,1.60
2022-09-17T07:10:25.037Z,1.48
2022-09-17T07:13:49.316Z,2.03
2022-09-17T07:17:12.284Z,1.92
2022-09-17T07:20:35.784Z,1.95
2022-09-17T07:23:59.381Z,2.67
2022-09-17T07:27:22.593Z,1.55
2022-09-17T07:30:47.023Z,2.17
2022-09-17T07:34:11.964Z,1.38
2022-09-17T07:37:35.137Z,1.95
2022-09-17T07:40:59.532Z,1.70
2022-09-17T07:44:22.706Z,1.95
2022-09-17T07:47:47.284Z,2.00
2022-09-17T07:51:15.622Z,2.10
2022-09-17T07:54:38.582Z,2.33
2022-09-17T07:58:01.541Z,1.45
2022-09-17T08:01:24.852Z,1.88
2022-09-17T08:04:49.150Z,2.13
2022-09-17T08:08:12.152Z,2.67
2022-09-17T08:15:18.621Z,2.65
2022-09-17T08:18:41.982Z,2.28
2022-09-17T08:22:06.361Z,2.17
2022-09-17T08:25:29.301Z,2.70
2022-09-17T08:28:55.010Z,2.45
2022-09-17T08:32:18.039Z,2.30
2022-09-17T08:35:41.079Z,2.40
2022-09-17T08:39:06.051Z,2.25
2022-09-17T08:42:36.725Z,2.83
2022-09-17T08:46:00.643Z,2.63
2022-09-17T08:49:33.251Z,2.88
2022-09-17T08:53:10.381Z,2.33
2022-09-17T08:56:35.829Z,3.05
2022-09-17T09:00:03.905Z,3.30
2022-09-17T09:03:38.918Z,3.47
2022-09-17T09:07:06.870Z,2.28
2022-09-17T09:10:33.670Z,2.75
2022-09-17T09:14:06.229Z,3.17
2022-09-17T09:17:35.021Z,2.47
2022-09-17T09:21:08.720Z,3.38
2022-09-17T09:24:41.509Z,6.88
2022-09-17T09:28:18.989Z,4.30
2022-09-17T09:32:17.003Z,3.90
2022-09-17T09:35:43.516Z,3.47
2022-09-17T09:39:15.813Z,4.60
2022-09-17T09:42:40.360Z,4.97
2022-09-17T09:46:33.586Z,4.45
2022-09-17T09:50:09.745Z,4.07
2022-09-17T09:53:46.685Z,5.13
2022-09-17T09:57:13.857Z,4.35
2022-09-17T10:00:38.854Z,4.50
2022-09-17T10:04:01.862Z,3.80
2022-09-17T10:07:26.150Z,4.05
2022-09-17T10:10:57.571Z,4.50
2022-09-17T10:14:25.729Z,4.55
2022-09-17T10:17:48.765Z,4.63
2022-09-17T10:21:21.105Z,3.95
2022-09-17T10:24:45.541Z,3.85
2022-09-17T10:28:30.677Z,4.03
2022-09-17T10:31:55.400Z,4.13
2022-09-17T10:35:28.045Z,4.60
2022-09-17T10:38:50.920Z,3.63
2022-09-17T10:42:17.723Z,3.25
2022-09-17T10:45:44.586Z,4.03
2022-09-17T10:49:12.938Z,4.10
2022-09-17T10:52:38.985Z,3.92
2022-09-17T10:56:14.504Z,3.58
2022-09-17T11:00:05.388Z,4.25
2022-09-17T11:03:52.801Z,3.65
2022-09-17T11:07:35.139Z,4.45
2022-09-17T11:11:06.422Z,3.10
2022-09-17T11:14:50.411Z,3.95
2022-09-17T11:18:41.225Z,3.45
2022-09-17T11:22:11.302Z,3.13
2022-09-17T11:25:48.062Z,3.78
2022-09-17T11:29:31.387Z,4.57
2022-09-17T11:33:20.119Z,3.88
2022-09-17T11:36:50.366Z,3.92
2022-09-17T11:40:18.088Z,4.18
2022-09-17T11:43:45.761Z,3.70
2022-09-17T11:47:14.312Z,3.65
2022-09-17T11:50:42.839Z,3.88
2022-09-17T11:54:16.563Z,3.47
2022-09-17T11:57:42.811Z,3.80
2022-09-17T12:01:10.399Z,3.50
2022-09-17T12:04:42.150Z,3.50
2022-09-17T12:08:16.069Z,3.10
2022-09-17T12:11:46.447Z,3.75
2022-09-17T12:15:18.963Z,3.22
2022-09-17T12:18:52.605Z,3.60
2022-09-17T12:22:22.032Z,3.55
2022-09-17T12:25:52.461Z,3.30
2022-09-17T12:29:31.089Z,3.83
2022-09-17T12:33:27.452Z,3.30
2022-09-17T12:36:56.492Z,3.08
2022-09-17T12:40:29.000Z,3.70
2022-09-17T12:44:13.261Z,3.33
2022-09-17T12:48:11.029Z,2.55
2022-09-17T12:51:55.201Z,3.70
2022-09-17T12:55:36.735Z,3.05
2022-09-17T12:59:06.854Z,2.67
2022-09-17T13:02:33.489Z,2.90
2022-09-17T13:06:33.400Z,3.42
2022-09-17T13:10:16.633Z,2.92
2022-09-17T13:13:49.480Z,2.90
2022-09-17T13:17:19.316Z,3.50
2022-09-17T13:21:01.743Z,3.25
2022-09-17T13:24:30.987Z,3.55
2022-09-17T13:28:08.356Z,3.45
2022-09-17T13:31:50.778Z,2.90
2022-09-17T13:35:52.988Z,2.88
2022-09-17T13:39:42.411Z,2.25
2022-09-17T13:43:10.480Z,2.55
2022-09-17T13:46:35.354Z,2.90
2022-09-17T13:50:01.936Z,3.15
2022-09-17T13:53:27.438Z,2.28
2022-09-17T13:57:10.871Z,2.70
2022-09-17T14:00:55.950Z,3.38
2022-09-17T14:04:34.609Z,2.47
2022-09-17T14:08:13.479Z,3.58
2022-09-17T14:11:39.446Z,2.50
2022-09-17T14:15:05.050Z,2.33
2022-09-17T14:18:59.940Z,2.55
2022-09-17T14:22:26.586Z,3.38
2022-09-17T14:25:55.696Z,2.47
2022-09-17T14:29:36.839Z,3.10
2022-09-17T14:33:15.060Z,3.13
2022-09-17T14:36:40.364Z,3.80
2022-09-17T14:40:09.907Z,4.22
2022-09-17T14:43:43.397Z,3.45
2022-09-17T14:47:11.745Z,2.80
2022-09-17T14:50:36.254Z,3.53
2022-09-17T14:54:17.935Z,2.80
2022-09-17T14:57:40.894Z,2.92
2022-09-17T15:01:03.995Z,3.50
2022-09-17T15:04:28.319Z,3.40
2022-09-17T15:07:52.736Z,3.88
2022-09-17T15:11:17.455Z,3.10
2022-09-17T15:14:40.802Z,3.08
2022-09-17T15:18:06.048Z,2.83
2022-09-17T15:21:34.501Z,3.88
2022-09-17T15:25:03.230Z,3.42
2022-09-17T15:28:32.703Z,3.03
2022-09-17T15:31:55.939Z,3.13
2022-09-17T15:35:22.674Z,3.45
2022-09-17T15:38:45.562Z,3.30
2022-09-17T15:42:20.418Z,3.78
2022-09-17T15:45:43.543Z,3.28
2022-09-17T15:49:32.097Z,4.28
2022-09-17T15:53:13.087Z,2.88
2022-09-17T15:56:37.851Z,2.90
2022-09-17T16:00:13.732Z,1.80
2022-09-17T16:04:04.865Z,3.00
2022-09-17T16:07:31.700Z,3.17
2022-09-17T16:10:54.738Z,2.75
2022-09-17T16:14:17.616Z,2.65
2022-09-17T16:17:46.028Z,2.97
2022-09-17T16:21:11.363Z,3.03
2022-09-17T16:24:34.250Z,2.70
2022-09-17T16:28:00.192Z,2.80
2022-09-17T16:31:23.506Z,2.55
2022-09-17T16:34:47.781Z,3.17
2022-09-17T16:38:12.822Z,2.53
2022-09-17T16:41:35.720Z,2.20
2022-09-17T16:44:58.768Z,2.90
2022-09-17T16:48:21.693Z,2.88
2022-09-17T16:51:45.979Z,2.67
2022-09-17T16:55:09.731Z,2.35
2022-09-17T16:58:32.637Z,2.60
2022-09-17T17:01:56.126Z,2.28
2022-09-17T17:05:19.109Z,3.22
2022-09-17T17:08:43.371Z,2.20
2022-09-17T17:12:06.785Z,2.92
2022-09-17T17:15:30.266Z,3.03
2022-09-17T17:18:54.449Z,3.25
2022-09-17T17:22:17.383Z,2.65
2022-09-17T17:25:41.623Z,2.45
2022-09-17T17:29:04.725Z,2.63
2022-09-17T17:32:27.580Z,2.03
2022-09-17T17:35:50.487Z,3.13
2022-09-17T17:39:13.482Z,2.65
2022-09-17T17:42:39.556Z,2.85
2022-09-17T17:46:02.633Z,2.70
2022-09-17T17:49:25.533Z,2.72
2022-09-17T17:52:49.036Z,2.88
2022-09-17T17:56:13.455Z,3.40
2022-09-17T17:59:37.741Z,2.78
2022-09-17T18:03:00.683Z,2.72
2022-09-17T18:06:23.613Z,2.47
2022-09-17T18:09:46.476Z,2.97
2022-09-17T18:13:09.358Z,3.00
2022-09-17T18:16:33.746Z,2.25
2022-09-17T18:19:58.750Z,2.47
2022-09-17T18:23:22.021Z,2.83
2022-09-17T18:26:47.353Z,3.13
2022-09-17T18:30:12.075Z,3.08
2022-09-17T18:33:37.153Z,3.92
2022-09-17T18:37:00.087Z,3.50
2022-09-17T18:40:23.078Z,3.63
2022-09-17T18:43:46.158Z,3.42
2022-09-17T18:47:09.132Z,4.72
2022-09-17T18:50:33.389Z,3.75
2022-09-17T18:53:56.775Z,4.43
2022-09-17T18:57:19.752Z,4.82
2022-09-17T19:00:42.764Z,3.70
2022-09-17T19:04:07.465Z,6.15
2022-09-17T19:07:32.013Z,4.95
2022-09-17T19:10:54.942Z,4.95
2022-09-17T19:14:18.380Z,4.38
2022-09-17T19:17:41.260Z,5.22
2022-09-17T19:21:06.557Z,5.25
2022-09-17T19:24:30.804Z,6.10
2022-09-17T19:27:55.904Z,4.97
2022-09-17T19:31:18.921Z,5.90
2022-09-17T19:34:42.525Z,6.20
2022-09-17T19:38:08.050Z,6.50
2022-09-17T19:41:36.149Z,5.50
2022-09-17T19:44:59.415Z,5.60
2022-09-17T19:48:25.302Z,5.60
2022-09-17T19:51:48.400Z,6.22
2022-09-17T19:55:13.048Z,6.38
2022-09-17T19:58:37.485Z,6.43
2022-09-17T20:02:00.439Z,5.47
2022-09-17T20:05:23.353Z,6.78
2022-09-17T20:08:47.293Z,6.97
2022-09-17T20:12:10.377Z,6.82
2022-09-17T20:15:36.792Z,7.70
2022-09-17T20:18:59.826Z,7.40
2022-09-17T20:22:22.780Z,6.40
2022-09-17T20:25:52.549Z,7.45
2022-09-17T20:29:15.800Z,8.32
2022-09-17T20:32:40.074Z,6.82
2022-09-17T20:36:05.004Z,7.38
2022-09-17T20:39:28.342Z,7.97
2022-09-17T20:42:51.602Z,8.05
2022-09-17T20:46:14.896Z,8.23
2022-09-17T20:49:39.293Z,9.07
2022-09-17T20:53:02.317Z,8.05
2022-09-17T20:56:31.323Z,8.35
2022-09-17T20:59:56.783Z,7.47
2022-09-17T21:03:20.194Z,9.27
2022-09-17T21:06:45.623Z,8.45
2022-09-17T21:10:10.105Z,7.95
2022-09-17T21:13:33.048Z,9.43
2022-09-17T21:16:55.972Z,8.18
2022-09-17T21:20:18.837Z,9.18
2022-09-17T21:23:43.930Z,8.57
2022-09-17T21:27:08.009Z,9.30
2022-09-17T21:30:31.026Z,10.10
2022-09-17T21:33:55.454Z,8.20
2022-09-17T21:37:18.364Z,9.55
2022-09-17T21:40:44.131Z,9.60
2022-09-17T21:44:12.822Z,8.40
2022-09-17T21:47:35.687Z,10.00
2022-09-17T21:51:06.150Z,9.52
2022-09-17T21:54:29.114Z,9.35
2022-09-17T21:57:54.016Z,7.82
2022-09-17T22:01:21.655Z,9.02
2022-09-17T22:04:44.666Z,8.60
2022-09-17T22:08:07.563Z,8.82
2022-09-17T22:11:33.088Z,8.18
2022-09-17T22:14:57.417Z,8.05
2022-09-17T22:18:20.338Z,7.78
2022-09-17T22:21:46.521Z,7.55
2022-09-17T22:25:10.556Z,7.65
2022-09-17T22:28:33.599Z,7.68
2022-09-17T22:31:58.113Z,6.85
2022-09-17T22:35:21.013Z,8.35
2022-09-17T22:38:48.624Z,7.05
2022-09-17T22:42:11.469Z,6.60
2022-09-17T22:45:34.316Z,6.68
2022-09-17T22:48:59.334Z,6.97
2022-09-17T22:52:22.376Z,6.93
2022-09-17T22:55:45.333Z,6.72
2022-09-17T22:59:08.546Z,6.05
2022-09-17T23:02:31.612Z,5.47
2022-09-17T23:05:59.834Z,5.53
2022-09-17T23:09:22.984Z,5.80
2022-09-17T23:12:45.925Z,6.05
2022-09-17T23:16:10.353Z,5.50
2022-09-17T23:19:33.324Z,5.35
2022-09-17T23:22:57.559Z,5.30
2022-09-17T23:26:22.069Z,5.03
2022-09-17T23:29:45.174Z,5.15
2022-09-17T23:33:09.319Z,5.72
2022-09-17T23:36:34.867Z,5.00
2022-09-17T23:39:59.670Z,4.70
2022-09-17T23:43:22.568Z,4.45
2022-09-17T23:46:46.909Z,3.70
2022-09-17T23:50:10.528Z,4.22
2022-09-17T23:53:34.932Z,3.78
2022-09-17T23:56:59.233Z,4.40
